Time;durP1;ratioP1;P1;durP2;ratioP2;P2;SDS_P1;SDS_P2;PMS_P1;PMS_P2;Temp;Humidity;BMP_temperature;BMP_pressure;BME280_temperature;BME280_humidity;BME280_pressure;Samples;Min_cycle;Max_cycle;Signal;HPM_P1;HPM_P2
2022/01/14 00:01:14;;;;;;;111.72;55.52;;;;;;;-2.32;75.55;101890.59;1400964;92;21720;-77
2022/01/14 00:03:42;;;;;;;108.25;56.10;;;;;;;-2.33;75.89;101881.09;1389423;92;21477;-76
2022/01/14 00:06:10;;;;;;;110.25;57.20;;;;;;;-2.31;76.11;101885.36;1392629;91;21427;-77
2022/01/14 00:08:38;;;;;;;104.55;54.73;;;;;;;-2.30;76.42;101885.80;1396683;91;21530;-77
2022/01/14 00:11:14;;;;;;;105.92;55.80;;;;;;;-2.27;76.11;101893.52;1353298;92;21389;-77
2022/01/14 00:14:06;;;;;;;110.78;57.30;;;;;;;-2.24;76.44;101888.72;1373982;92;23171;-77
2022/01/14 00:16:22;;;;;;;113.97;58.98;;;;;;;-2.23;76.54;101881.78;1383326;92;21451;-77
2022/01/14 00:18:49;;;;;;;109.95;55.80;;;;;;;-2.21;76.39;101873.54;1419057;93;22566;-76
2022/01/14 00:21:16;;;;;;;100.50;51.92;;;;;;;-2.18;76.65;101872.18;1411097;93;21355;-76
2022/01/14 00:23:45;;;;;;;117.72;56.80;;;;;;;-2.19;77.07;101876.48;1369818;95;21313;-76
2022/01/14 00:31:54;;;;;;;110.95;57.67;;;;;;;-2.23;78.53;101897.34;1385572;92;21493;-77
2022/01/14 00:34:15;;;;;;;104.27;53.60;;;;;;;-2.23;78.25;101885.67;1392633;91;22427;-77
2022/01/14 00:36:43;;;;;;;119.85;57.33;;;;;;;-2.20;77.98;101880.42;1386369;91;21364;-78
2022/01/14 00:39:12;;;;;;;107.03;55.00;;;;;;;-2.19;78.55;101876.94;1419118;90;21331;-77
2022/01/14 00:41:40;;;;;;;107.97;55.08;;;;;;;-2.17;78.04;101872.58;1436353;90;21361;-77
2022/01/14 00:44:14;;;;;;;107.37;54.00;;;;;;;-2.15;78.34;101870.81;1396869;91;21460;-78
2022/01/14 00:46:45;;;;;;;108.15;58.00;;;;;;;-2.12;78.38;101878.53;1354129;92;21614;-78
2022/01/14 00:49:14;;;;;;;99.92;52.73;;;;;;;-2.12;78.67;101888.91;1368906;91;21437;-78
2022/01/14 00:51:41;;;;;;;106.40;55.25;;;;;;;-2.13;78.81;101880.28;1396590;93;21417;-77
2022/01/14 00:54:09;;;;;;;109.50;54.73;;;;;;;-2.14;79.14;101890.67;1406983;93;22376;-78
2022/01/14 00:59:15;;;;;;;108.65;54.88;;;;;;;-2.01;78.29;101864.02;1399965;91;21613;-79
2022/01/14 01:01:51;;;;;;;112.30;56.58;;;;;;;-1.97;78.39;101861.80;1406428;91;21345;-79
2022/01/14 01:04:27;;;;;;;101.67;53.28;;;;;;;-1.96;78.63;101859.15;1400248;93;22324;-78
2022/01/14 01:06:53;;;;;;;99.42;52.10;;;;;;;-1.97;78.70;101858.75;1365889;93;21519;-79
2022/01/14 01:09:23;;;;;;;110.32;58.23;;;;;;;-1.99;79.00;101854.47;1352758;93;21489;-79
2022/01/14 01:11:54;;;;;;;118.55;54.70;;;;;;;-2.03;79.36;101847.20;1385800;93;21486;-79
2022/01/14 01:14:38;;;;;;;104.55;53.20;;;;;;;-2.08;79.35;101856.81;1384979;93;22179;-78
2022/01/14 01:16:56;;;;;;;104.60;54.88;;;;;;;-2.09;79.18;101852.53;1397258;93;22481;-79
2022/01/14 01:19:24;;;;;;;106.63;54.90;;;;;;;-2.09;79.81;101842.16;1378419;93;22896;-79
2022/01/14 01:21:52;;;;;;;105.17;53.45;;;;;;;-2.09;79.75;101830.48;1376689;93;21622;-79
2022/01/14 01:24:20;;;;;;;114.85;55.38;;;;;;;-2.13;79.86;101821.91;1395909;93;22524;-76
2022/01/14 01:26:49;;;;;;;116.42;58.63;;;;;;;-2.13;81.08;101826.22;1384687;93;21460;-77
2022/01/14 01:31:58;;;;;;;118.70;54.65;;;;;;;-2.12;80.95;101814.98;1390703;93;21743;-78
2022/01/14 01:34:26;;;;;;;116.88;58.78;;;;;;;-2.14;80.95;101806.37;1389996;92;21469;-78
2022/01/14 01:36:56;;;;;;;112.03;53.38;;;;;;;-2.13;81.37;101814.13;1389065;92;21559;-77
2022/01/14 01:39:28;;;;;;;107.83;56.35;;;;;;;-2.13;81.29;101811.95;1360315;93;21392;-78
2022/01/14 01:42:00;;;;;;;;;;;;;;;-2.16;82.10;101802.94;1348489;94;22339;-78
2022/01/14 01:44:28;;;;;;;113.90;56.28;;;;;;;-2.15;81.98;101792.55;1372651;92;20377;-78
2022/01/14 01:46:57;;;;;;;113.72;57.65;;;;;;;-2.11;81.48;101795.92;1376035;93;21429;-78
2022/01/14 01:49:29;;;;;;;108.97;56.83;;;;;;;-2.07;82.04;101787.20;1362760;95;21503;-78
2022/01/14 01:51:57;;;;;;;112.95;58.35;;;;;;;-2.00;81.66;101796.55;1372927;93;21457;-78
2022/01/14 01:54:26;;;;;;;98.17;51.13;;;;;;;-2.01;81.24;101790.08;1383075;92;23485;-79
2022/01/14 01:56:55;;;;;;;114.20;58.17;;;;;;;-2.00;82.25;101787.46;1388416;93;21551;-78
2022/01/14 01:59:24;;;;;;;111.50;54.08;;;;;;;-2.01;81.84;101787.48;1346169;95;21476;-78
2022/01/14 02:01:53;;;;;;;112.68;57.33;;;;;;;-2.05;81.48;101778.92;1371469;94;21503;-78
2022/01/14 02:04:20;;;;;;;111.00;53.68;;;;;;;-2.03;81.62;101786.23;1390406;93;21409;-78
2022/01/14 02:06:47;;;;;;;106.10;54.10;;;;;;;-2.02;81.95;101789.23;1375452;93;21433;-78
2022/01/14 02:09:15;;;;;;;105.20;53.60;;;;;;;-2.02;81.49;101791.82;1391535;92;21652;-78
2022/01/14 02:11:42;;;;;;;109.55;55.23;;;;;;;-1.99;81.45;101785.27;1352356;94;22454;-78
2022/01/14 02:14:27;;;;;;;116.33;59.48;;;;;;;-1.92;82.07;101789.89;1373130;94;21549;-77
2022/01/14 02:17:17;;;;;;;109.67;54.40;;;;;;;-1.92;81.82;101786.85;1370278;94;21735;-77
2022/01/14 02:19:42;;;;;;;115.25;61.53;;;;;;;-1.90;82.00;101783.79;1372753;93;21517;-77
2022/01/14 02:22:13;;;;;;;119.57;58.00;;;;;;;-1.92;83.63;101790.75;1384426;93;23726;-77
2022/01/14 02:27:12;;;;;;;107.47;56.30;;;;;;;-1.85;82.61;101783.21;1387015;92;22411;-77
2022/01/14 02:29:40;;;;;;;110.83;56.60;;;;;;;-1.79;82.67;101783.52;1370188;93;22454;-76
2022/01/14 02:32:08;;;;;;;106.20;55.60;;;;;;;-1.75;82.84;101775.24;1393203;92;21290;-77
2022/01/14 02:34:38;;;;;;;112.77;56.48;;;;;;;-1.74;82.36;101774.34;1418030;91;21509;-76
2022/01/14 02:37:06;;;;;;;105.58;54.98;;;;;;;-1.74;82.76;101764.80;1422434;91;22320;-77
2022/01/14 02:39:33;;;;;;;113.35;55.98;;;;;;;-1.71;82.88;101763.88;1421002;92;21407;-77
2022/01/14 02:42:00;;;;;;;97.78;51.63;;;;;;;-1.67;82.53;101751.22;1442383;92;21457;-77
2022/01/14 02:44:30;;;;;;;106.25;55.70;;;;;;;-1.63;82.50;101755.02;1400085;91;21347;-77
2022/01/14 02:47:03;;;;;;;104.53;53.85;;;;;;;-1.62;82.94;101762.36;1370308;92;21297;-79
2022/01/14 02:49:30;;;;;;;119.62;56.40;;;;;;;-1.63;82.94;101755.47;1359933;92;21413;-78
2022/01/14 02:52:02;;;;;;;98.20;50.43;;;;;;;-1.59;82.69;101750.59;1380071;92;22456;-78
2022/01/14 02:54:33;;;;;;;107.15;54.77;;;;;;;-1.52;82.60;101739.63;1359313;93;21378;-78
2022/01/14 02:57:01;;;;;;;;;;;;;;;-1.47;82.43;101728.21;1428608;92;22424;-78
2022/01/14 02:59:30;;;;;;;101.05;52.98;;;;;;;-1.51;83.06;101735.69;1406540;92;20378;-76
2022/01/14 03:02:01;;;;;;;105.60;55.45;;;;;;;-1.49;82.35;101736.96;1419190;92;21406;-76
2022/01/14 03:04:29;;;;;;;101.78;53.13;;;;;;;-1.45;82.35;101742.02;1374719;93;21334;-76
2022/01/14 03:06:56;;;;;;;104.20;55.23;;;;;;;-1.40;82.33;101739.31;1379665;93;21372;-76
2022/01/14 03:09:23;;;;;;;110.88;56.25;;;;;;;-1.39;82.44;101744.91;1391736;94;21364;-76
2022/01/14 03:11:53;;;;;;;91.40;49.05;;;;;;;-1.42;83.27;101745.84;1427448;93;21364;-76
2022/01/14 03:14:24;;;;;;;100.72;53.05;;;;;;;-1.42;82.60;101740.64;1382701;92;21431;-77
2022/01/14 03:16:54;;;;;;;97.72;50.90;;;;;;;-1.41;82.78;101729.38;1380945;92;22839;-75
2022/01/14 03:19:25;;;;;;;90.57;48.92;;;;;;;-1.38;83.04;101744.03;1435252;93;21357;-76
2022/01/14 03:22:04;;;;;;;94.05;49.33;;;;;;;-1.36;82.56;101739.18;1411478;93;21509;-90
2022/01/14 03:26:52;;;;;;;103.92;54.00;;;;;;;-1.36;83.02;101725.34;1392375;92;20460;-90
2022/01/14 03:29:20;;;;;;;104.40;51.63;;;;;;;-1.34;82.69;101724.02;1395174;92;21984;-90
2022/01/14 03:31:48;;;;;;;89.75;48.40;;;;;;;-1.34;82.63;101720.98;1390879;92;21622;-87
2022/01/14 03:34:16;;;;;;;91.97;47.23;;;;;;;-1.31;82.56;101718.75;1384552;93;21430;-89
2022/01/14 03:36:43;;;;;;;96.53;51.33;;;;;;;-1.30;83.47;101721.73;1382556;92;21467;-89
2022/01/14 03:39:12;;;;;;;86.20;47.35;;;;;;;-1.28;83.15;101725.16;1389063;92;22428;-89
2022/01/14 03:41:40;;;;;;;101.55;54.23;;;;;;;-1.24;82.91;101716.38;1389156;91;23415;-89
2022/01/14 03:44:09;;;;;;;92.72;48.85;;;;;;;-1.20;82.80;101716.72;1388198;92;21423;-89
2022/01/14 03:46:36;;;;;;;93.27;49.53;;;;;;;-1.19;82.45;101700.23;1378353;92;21349;-90
2022/01/14 03:49:03;;;;;;;89.65;49.53;;;;;;;-1.23;83.18;101697.33;1384666;91;21449;-89
2022/01/14 03:51:31;;;;;;;88.45;45.60;;;;;;;-1.26;82.70;101695.66;1328267;92;21540;-89
2022/01/14 03:53:58;;;;;;;88.33;47.53;;;;;;;-1.32;82.87;101696.24;1423683;92;22400;-89
2022/01/14 03:56:26;;;;;;;96.60;49.77;;;;;;;-1.31;83.20;101703.16;1422839;91;21357;-89
2022/01/14 03:58:54;;;;;;;85.90;45.50;;;;;;;-1.34;83.25;101709.29;1387885;91;21652;-89
2022/01/14 04:01:22;;;;;;;86.02;44.90;;;;;;;-1.34;83.34;101713.19;1364300;92;21445;-89
2022/01/14 04:03:50;;;;;;;83.20;44.95;;;;;;;-1.31;82.98;101717.45;1374799;93;21381;-89
2022/01/14 04:06:17;;;;;;;93.45;49.80;;;;;;;-1.28;83.08;101709.58;1387617;93;22406;-90
2022/01/14 04:08:46;;;;;;;80.95;44.48;;;;;;;-1.24;82.88;101710.73;1381266;92;22319;-90
2022/01/14 04:11:13;;;;;;;92.12;48.98;;;;;;;-1.22;83.07;101702.91;1373619;93;21496;-90
2022/01/14 04:13:46;;;;;;;85.53;47.53;;;;;;;-1.21;82.97;101689.02;1343946;93;21465;-90
2022/01/14 04:16:13;;;;;;;83.42;43.92;;;;;;;-1.17;82.79;101689.36;1327282;95;21412;-89
2022/01/14 04:18:41;;;;;;;88.70;48.08;;;;;;;-1.21;82.69;101687.72;1392330;92;21472;-89
2022/01/14 04:21:08;;;;;;;97.70;50.63;;;;;;;-1.20;82.88;101697.23;1388855;92;21333;-90
2022/01/14 04:23:36;;;;;;;94.62;53.52;;;;;;;-1.19;82.54;101697.63;1395407;92;21468;-89
2022/01/14 04:26:03;;;;;;;83.47;45.23;;;;;;;-1.21;82.76;101695.09;1371490;93;21339;-90
2022/01/14 04:28:37;;;;;;;91.20;53.30;;;;;;;-1.21;82.94;101685.13;1363367;94;22392;-90
2022/01/14 04:31:05;;;;;;;98.87;49.88;;;;;;;-1.22;82.68;101675.63;1377781;93;21613;-90
2022/01/14 04:33:34;;;;;;;88.35;47.20;;;;;;;-1.23;82.94;101663.55;1415318;91;21536;-87
2022/01/14 04:36:04;;;;;;;91.75;46.65;;;;;;;-1.28;83.16;101652.43;1404498;90;21545;-90
2022/01/14 04:38:32;;;;;;;97.50;50.52;;;;;;;-1.32;83.17;101654.27;1415334;90;21936;-89
2022/01/14 04:40:59;;;;;;;85.53;46.48;;;;;;;-1.29;83.21;101640.34;1408919;91;21587;-90
2022/01/14 04:43:28;;;;;;;81.00;44.30;;;;;;;-1.31;83.26;101638.23;1416919;91;21738;-90
2022/01/14 04:48:35;;;;;;;90.57;48.23;;;;;;;-1.39;83.92;101630.19;1408882;92;21568;-89
2022/01/14 04:51:06;;;;;;;85.80;46.05;;;;;;;-1.43;84.39;101625.98;1394065;92;21986;-89
2022/01/14 04:53:35;;;;;;;85.35;48.17;;;;;;;-1.44;84.11;101626.89;1411161;90;21604;-89
2022/01/14 04:56:04;;;;;;;86.67;46.98;;;;;;;-1.44;84.30;101626.89;1396528;91;21487;-89
2022/01/14 04:58:31;;;;;;;86.82;46.15;;;;;;;-1.46;84.39;101620.88;1410499;91;21563;-87
2022/01/14 05:00:59;;;;;;;95.65;48.68;;;;;;;-1.50;84.20;101621.83;1402870;91;21326;-87
2022/01/14 05:03:26;;;;;;;87.20;48.15;;;;;;;-1.49;84.52;101618.36;1384349;91;21586;-88
2022/01/14 05:05:54;;;;;;;80.87;43.95;;;;;;;-1.45;84.69;101623.86;1411667;90;23694;-88
2022/01/14 05:08:30;;;;;;;93.62;46.05;;;;;;;-1.45;84.43;101632.95;1402472;91;21486;-88
2022/01/14 05:13:23;;;;;;;91.40;46.35;;;;;;;-1.40;84.28;101630.24;1414393;91;22281;-88
2022/01/14 05:15:53;;;;;;;88.52;44.93;;;;;;;-1.38;85.14;101630.61;1392480;92;21674;-87
2022/01/14 05:18:25;;;;;;;93.03;46.95;;;;;;;-1.33;84.49;101625.72;1385390;92;21703;-87
2022/01/14 05:20:53;;;;;;;89.60;47.60;;;;;;;-1.27;84.51;101626.39;1399029;90;21603;-85
2022/01/14 05:23:20;;;;;;;86.37;46.90;;;;;;;-1.26;85.07;101620.78;1412197;90;21442;-86
2022/01/14 05:25:48;;;;;;;87.10;47.85;;;;;;;-1.24;84.64;101617.66;1407107;92;21518;-86
2022/01/14 05:28:15;;;;;;;83.45;43.68;;;;;;;-1.23;84.64;101617.64;1413740;91;21413;-86
2022/01/14 05:30:43;;;;;;;89.28;45.12;;;;;;;-1.18;84.42;101617.07;1414501;90;21424;-86
2022/01/14 05:33:10;;;;;;;85.22;46.25;;;;;;;-1.15;84.44;101612.23;1408597;91;21436;-85
2022/01/14 05:35:37;;;;;;;86.60;47.60;;;;;;;-1.16;84.19;101603.56;1402665;92;21393;-85
2022/01/14 05:38:05;;;;;;;92.85;49.27;;;;;;;-1.14;84.33;101597.04;1411886;90;21481;-86
2022/01/14 05:40:32;;;;;;;88.37;47.85;;;;;;;-1.16;84.30;101587.13;1408543;90;21729;-86
2022/01/14 05:43:00;;;;;;;82.22;42.88;;;;;;;-1.17;84.48;101585.44;1392194;91;21603;-87
2022/01/14 05:45:27;;;;;;;83.20;42.93;;;;;;;-1.16;84.19;101584.53;1415922;91;21523;-87
2022/01/14 05:47:55;;;;;;;87.10;48.30;;;;;;;-1.21;84.74;101577.31;1421236;91;21946;-87
2022/01/14 05:50:25;;;;;;;90.97;45.58;;;;;;;-1.19;84.29;101569.04;1393563;93;22576;-87
2022/01/14 05:52:53;;;;;;;86.60;46.77;;;;;;;-1.17;84.58;101559.45;1392544;92;22137;-87
2022/01/14 05:55:22;;;;;;;78.65;43.20;;;;;;;-1.22;84.66;101558.73;1391392;93;22324;-87
2022/01/14 05:57:49;;;;;;;87.00;46.18;;;;;;;-1.29;84.96;101566.32;1412400;92;21628;-86
2022/01/14 06:00:20;;;;;;;80.70;45.15;;;;;;;-1.36;85.30;101557.83;1368505;92;21516;-87
2022/01/14 06:02:49;;;;;;;96.05;48.45;;;;;;;-1.40;85.56;101566.16;1385865;90;22331;-87
2022/01/14 06:05:18;;;;;;;81.95;46.70;;;;;;;-1.45;86.26;101561.54;1409529;91;21511;-86
2022/01/14 06:07:45;;;;;;;83.40;44.77;;;;;;;-1.48;85.60;101561.63;1403331;90;21408;-87
2022/01/14 06:10:12;;;;;;;85.05;45.12;;;;;;;-1.45;85.61;101566.73;1376624;91;21325;-87
2022/01/14 06:12:40;;;;;;;84.92;47.83;;;;;;;-1.47;86.09;101577.60;1377464;91;21353;-87
2022/01/14 06:15:08;;;;;;;87.92;48.10;;;;;;;-1.47;86.18;101568.51;1406269;91;21438;-87
2022/01/14 06:17:35;;;;;;;86.40;46.53;;;;;;;-1.40;86.03;101564.02;1404976;90;22737;-87
2022/01/14 06:20:04;;;;;;;86.15;44.30;;;;;;;-1.35;85.99;101555.66;1439120;92;21505;-87
2022/01/14 06:22:31;;;;;;;86.67;43.98;;;;;;;-1.32;86.19;101558.58;1442532;90;22451;-86
2022/01/14 06:25:00;;;;;;;84.67;46.45;;;;;;;-1.31;86.11;101559.01;1418631;91;21569;-86
2022/01/14 06:27:27;;;;;;;86.25;48.68;;;;;;;-1.34;86.74;101559.94;1416187;91;21625;-87
2022/01/14 06:29:54;;;;;;;93.90;51.35;;;;;;;-1.32;86.44;101554.69;1421682;91;21450;-88
2022/01/14 06:32:22;;;;;;;82.82;47.55;;;;;;;-1.29;86.19;101552.03;1390657;91;21545;-87
2022/01/14 06:34:49;;;;;;;87.47;45.52;;;;;;;-1.26;86.53;101567.53;1389066;91;21670;-87
2022/01/14 06:37:17;;;;;;;90.95;48.70;;;;;;;-1.25;86.41;101577.86;1416868;91;21442;-85
2022/01/14 06:39:44;;;;;;;89.47;47.05;;;;;;;-1.19;86.15;101576.83;1412860;91;21636;-85
2022/01/14 06:42:11;;;;;;;89.75;49.10;;;;;;;-1.19;85.74;101582.03;1415104;91;21471;-86
2022/01/14 06:44:39;;;;;;;94.60;49.60;;;;;;;-1.18;85.83;101587.19;1415412;91;21434;-86
2022/01/14 06:47:06;;;;;;;95.85;48.78;;;;;;;-1.15;86.20;101591.45;1406229;91;22314;-86
2022/01/14 06:49:34;;;;;;;91.97;50.08;;;;;;;-1.14;85.79;101587.95;1412309;90;21642;-86
2022/01/14 06:52:01;;;;;;;89.30;51.05;;;;;;;-1.16;85.64;101585.38;1409317;91;21407;-83
2022/01/14 06:54:28;;;;;;;91.92;46.48;;;;;;;-1.22;85.64;101577.77;1415911;90;21620;-85
2022/01/14 06:56:55;;;;;;;93.52;49.33;;;;;;;-1.19;85.70;101571.63;1397285;90;21332;-86
2022/01/14 06:59:22;;;;;;;91.45;49.65;;;;;;;-1.14;85.62;101573.20;1410848;91;21459;-87
2022/01/14 07:01:50;;;;;;;88.95;47.53;;;;;;;-1.08;85.74;101574.77;1402485;90;21367;-87
2022/01/14 07:04:18;;;;;;;95.03;46.18;;;;;;;-1.09;85.70;101565.29;1415339;91;22234;-87
2022/01/14 07:06:45;;;;;;;96.78;48.80;;;;;;;-1.06;85.71;101565.20;1413423;91;21500;-86
2022/01/14 07:09:12;;;;;;;91.00;47.45;;;;;;;-1.05;85.92;101565.59;1384169;92;21489;-86
2022/01/14 07:11:40;;;;;;;87.55;46.33;;;;;;;-1.06;85.74;101567.80;1370048;94;21432;-87
2022/01/14 07:14:08;;;;;;;96.95;51.25;;;;;;;-1.04;85.58;101564.67;1373362;94;21686;-86
2022/01/14 07:16:35;;;;;;;93.60;50.40;;;;;;;-1.03;85.50;101564.26;1386487;92;21607;-81
2022/01/14 07:19:03;;;;;;;95.05;49.25;;;;;;;-1.01;85.68;101568.48;1382514;93;21542;-78
2022/01/14 07:21:45;;;;;;;98.15;50.30;;;;;;;-1.02;85.48;101566.80;1385591;93;22448;-83
2022/01/14 07:24:04;;;;;;;98.22;51.20;;;;;;;-0.98;85.85;101567.12;1386996;92;22439;-77
2022/01/14 07:26:32;;;;;;;91.17;48.50;;;;;;;-0.97;86.03;101548.02;1391499;93;21649;-78
2022/01/14 07:29:00;;;;;;;99.15;49.15;;;;;;;-0.94;85.86;101545.33;1384242;93;21649;-80
2022/01/14 07:31:27;;;;;;;96.97;52.00;;;;;;;-0.93;85.76;101543.58;1392464;92;22561;-81
2022/01/14 07:33:54;;;;;;;94.20;50.73;;;;;;;-0.89;85.66;101544.32;1384029;93;21973;-81
2022/01/14 07:36:22;;;;;;;97.50;52.85;;;;;;;-0.89;85.99;101551.70;1378050;93;21451;-81
2022/01/14 07:38:50;;;;;;;107.67;54.30;;;;;;;-0.86;85.63;101545.10;1390386;93;21534;-80
2022/01/14 07:41:18;;;;;;;104.32;50.50;;;;;;;-0.84;85.59;101541.14;1383689;92;21526;-89
2022/01/14 07:43:48;;;;;;;98.15;51.92;;;;;;;-0.83;85.56;101538.51;1391788;92;21467;-91
2022/01/14 07:46:15;;;;;;;98.65;50.33;;;;;;;-0.77;85.53;101534.41;1396141;92;21585;-89
2022/01/14 07:48:42;;;;;;;100.53;51.28;;;;;;;-0.72;85.49;101520.83;1388837;92;21354;-91
2022/01/14 07:51:10;;;;;;;97.85;53.25;;;;;;;-0.70;85.52;101523.36;1381619;92;21423;-90
2022/01/14 07:53:37;;;;;;;96.92;52.58;;;;;;;-0.69;85.20;101514.23;1394774;92;21540;-89
2022/01/14 07:56:07;;;;;;;100.45;52.43;;;;;;;-0.66;85.20;101512.41;1398527;93;22417;-89
2022/01/14 07:58:35;;;;;;;96.80;52.80;;;;;;;-0.71;85.11;101524.27;1393413;92;21475;-90
2022/01/14 08:01:02;;;;;;;94.72;52.10;;;;;;;-0.73;85.05;101515.66;1378849;91;21475;-90
2022/01/14 08:03:29;;;;;;;98.47;50.75;;;;;;;-0.76;85.10;101513.16;1379766;92;21383;-91
2022/01/14 08:05:58;;;;;;;99.92;51.35;;;;;;;-0.83;85.15;101512.97;1404264;91;22137;-83
2022/01/14 08:08:25;;;;;;;100.47;51.60;;;;;;;-0.81;85.25;101514.59;1368887;90;21436;-83
2022/01/14 08:10:52;;;;;;;100.53;53.23;;;;;;;-0.80;85.26;101516.77;1357712;90;21354;-83
2022/01/14 08:13:19;;;;;;;106.97;55.73;;;;;;;-0.89;85.37;101498.84;1335307;92;21346;-83
2022/01/14 08:15:47;;;;;;;91.53;49.73;;;;;;;-0.98;85.36;101491.76;1414585;91;21464;-83
2022/01/14 08:18:14;;;;;;;102.47;52.65;;;;;;;-1.00;86.01;101498.74;1395465;91;21634;-83
2022/01/14 08:20:42;;;;;;;98.50;52.03;;;;;;;-0.98;86.02;101494.78;1390186;91;22973;-83
2022/01/14 08:23:10;;;;;;;99.35;54.30;;;;;;;-0.95;86.01;101485.16;1411107;90;21737;-83
2022/01/14 08:25:37;;;;;;;101.50;52.25;;;;;;;-0.98;86.01;101486.56;1396487;91;21394;-83
2022/01/14 08:28:05;;;;;;;102.53;51.77;;;;;;;-0.98;86.00;101473.99;1387014;91;21530;-84
2022/01/14 08:30:33;;;;;;;100.18;52.67;;;;;;;-0.94;86.06;101467.81;1400979;91;22298;-84
2022/01/14 08:33:00;;;;;;;104.20;55.12;;;;;;;-0.95;86.29;101466.97;1417317;91;21558;-83
2022/01/14 08:35:27;;;;;;;105.70;54.50;;;;;;;-1.02;86.73;101462.84;1409245;92;21419;-82
2022/01/14 08:37:54;;;;;;;103.42;53.58;;;;;;;-1.08;86.60;101464.34;1393028;91;22978;-83
2022/01/14 08:40:22;;;;;;;101.58;52.20;;;;;;;-1.09;86.79;101463.95;1424209;90;21523;-82
2022/01/14 08:42:53;;;;;;;108.90;53.92;;;;;;;-1.09;87.30;101463.95;1405769;90;21459;-81
2022/01/14 08:45:21;;;;;;;109.63;59.53;;;;;;;-1.11;87.00;101464.89;1396522;92;22535;-84
2022/01/14 08:47:53;;;;;;;99.13;53.42;;;;;;;-1.08;87.29;101470.84;1453024;90;21361;-83
2022/01/14 08:50:27;;;;;;;103.65;53.08;;;;;;;-1.07;87.26;101467.78;1350043;91;21302;-83
2022/01/14 08:52:54;;;;;;;112.28;53.75;;;;;;;-1.02;87.17;101478.44;1353164;91;21493;-83
2022/01/14 08:55:23;;;;;;;104.83;52.90;;;;;;;-1.03;87.04;101475.45;1345516;90;21346;-83
2022/01/14 08:57:50;;;;;;;104.40;55.95;;;;;;;-1.02;86.90;101469.34;1400965;90;21715;-83
2022/01/14 09:00:21;;;;;;;106.55;55.63;;;;;;;-0.98;87.10;101472.69;1375739;92;21484;-83
2022/01/14 09:02:49;;;;;;;96.08;52.45;;;;;;;-0.89;87.23;101458.55;1420385;91;21597;-82
2022/01/14 09:05:16;;;;;;;93.85;52.35;;;;;;;-0.89;87.23;101458.55;1408111;91;21448;-83
2022/01/14 09:07:43;;;;;;;100.97;50.52;;;;;;;-0.89;87.07;101458.13;1380320;91;22336;-84
2022/01/14 09:10:11;;;;;;;97.78;52.38;;;;;;;-0.92;87.20;101461.67;1426224;91;21561;-83
2022/01/14 09:12:40;;;;;;;97.33;54.30;;;;;;;-0.94;87.14;101450.47;1358037;93;21325;-83
2022/01/14 09:15:09;;;;;;;99.17;52.48;;;;;;;-0.96;87.02;101441.86;1337968;93;21395;-82
2022/01/14 09:17:38;;;;;;;106.78;53.65;;;;;;;-0.94;87.26;101432.73;1391818;90;21353;-82
2022/01/14 09:20:08;;;;;;;115.82;57.65;;;;;;;-0.93;87.25;101430.06;1416259;91;22588;-83
2022/01/14 09:22:36;;;;;;;103.35;54.48;;;;;;;-0.94;87.36;101424.94;1392949;92;22424;-83
2022/01/14 09:25:06;;;;;;;103.87;54.27;;;;;;;-0.93;87.17;101434.42;1386963;91;23013;-82
2022/01/14 09:27:33;;;;;;;108.83;54.40;;;;;;;-0.93;87.36;101436.56;1392407;93;21453;-83
2022/01/14 09:30:04;;;;;;;96.42;52.95;;;;;;;-0.99;87.60;101428.97;1411817;91;21645;-81
2022/01/14 09:32:31;;;;;;;95.10;51.48;;;;;;;-0.98;87.55;101437.19;1412581;91;21522;-83
2022/01/14 09:35:04;;;;;;;106.15;54.25;;;;;;;-1.00;87.90;101435.08;1415678;91;21966;-83
2022/01/14 09:37:41;;;;;;;100.27;51.30;;;;;;;-0.95;87.68;101438.81;1410337;91;22876;-83
2022/01/14 09:40:09;;;;;;;103.55;52.40;;;;;;;-0.93;87.59;101431.37;1387672;91;21627;-82
2022/01/14 09:42:36;;;;;;;99.92;53.83;;;;;;;-0.94;87.74;101430.13;1424159;90;21456;-81
2022/01/14 09:45:06;;;;;;;111.42;57.40;;;;;;;-0.99;87.52;101426.37;1411890;91;21712;-82
2022/01/14 09:47:33;;;;;;;112.85;54.98;;;;;;;-0.94;87.70;101421.03;1397756;92;21445;-83
2022/01/14 09:50:01;;;;;;;102.90;53.70;;;;;;;-0.96;87.67;101426.27;1395672;92;23356;-83
2022/01/14 09:52:28;;;;;;;100.70;53.85;;;;;;;-0.96;87.67;101423.67;1407316;91;21656;-84
2022/01/14 09:54:55;;;;;;;102.07;53.50;;;;;;;-0.92;87.66;101420.55;1403508;91;21456;-83
2022/01/14 09:57:23;;;;;;;91.53;48.80;;;;;;;-0.91;87.93;101416.58;1429180;90;21471;-83
2022/01/14 09:59:50;;;;;;;97.10;50.23;;;;;;;-0.87;87.57;101416.48;1406555;91;22454;-84
2022/01/14 10:02:34;;;;;;;99.17;51.85;;;;;;;-0.84;87.76;101417.22;1407430;91;22405;-83
2022/01/14 10:05:04;;;;;;;128.82;62.38;;;;;;;-0.81;87.16;101413.67;1418168;90;21589;-84
2022/01/14 10:07:33;;;;;;;103.38;56.25;;;;;;;-0.86;87.39;101411.67;1372036;93;23115;-84
2022/01/14 10:10:03;;;;;;;107.75;56.02;;;;;;;-0.89;87.37;101408.75;1382504;92;21495;-85
2022/01/14 10:12:35;;;;;;;110.87;58.50;;;;;;;-0.84;87.41;101401.62;1379270;93;21509;-84
2022/01/14 10:15:11;;;;;;;100.80;54.05;;;;;;;-0.77;87.23;101400.53;1321070;93;22109;-85
2022/01/14 10:17:44;;;;;;;99.77;55.45;;;;;;;-0.75;87.33;101390.95;1313303;93;21349;-84
2022/01/14 10:20:15;;;;;;;101.67;55.10;;;;;;;-0.76;87.06;101378.83;1369624;94;21486;-85
2022/01/14 10:22:46;;;;;;;109.42;59.55;;;;;;;-0.71;87.09;101382.13;1420179;91;21910;-84
2022/01/14 10:25:20;;;;;;;110.78;56.65;;;;;;;-0.71;86.61;101379.98;1388533;93;21430;-85
2022/01/14 10:27:54;;;;;;;102.07;55.15;;;;;;;-0.71;86.72;101371.73;1381657;93;21476;-85
2022/01/14 10:30:31;;;;;;;98.33;51.33;;;;;;;-0.69;86.70;101367.79;1347351;94;22507;-85
2022/01/14 10:33:05;;;;;;;99.97;51.92;;;;;;;-0.71;86.46;101366.98;1379474;92;22414;-85
2022/01/14 10:35:45;;;;;;;104.67;55.85;;;;;;;-0.74;86.25;101368.39;1389346;92;21438;-84
2022/01/14 10:38:20;;;;;;;106.30;55.98;;;;;;;-0.75;86.53;101364.07;1400366;92;22550;-84
2022/01/14 10:40:51;;;;;;;100.53;56.35;;;;;;;-0.70;86.49;101360.88;1348264;91;21448;-85
2022/01/14 10:43:23;;;;;;;;;;;;;;;-0.65;86.54;101352.47;1371388;92;21455;-85
2022/01/14 10:45:52;;;;;;;109.30;58.85;;;;;;;-0.66;86.38;101340.38;1385001;92;20434;-84
2022/01/14 10:48:39;;;;;;;83.85;44.75;;;;;;;-0.70;86.34;101337.47;1369744;91;21520;-83
2022/01/14 10:51:10;;;;;;;121.02;62.30;;;;;;;-0.76;86.56;101337.23;1319857;93;21303;-85
2022/01/14 10:53:43;;;;;;;117.15;61.88;;;;;;;-0.77;86.30;101338.15;1405016;92;22286;-85
2022/01/14 10:56:23;;;;;;;105.40;55.78;;;;;;;-0.77;86.21;101334.70;1360309;93;21311;-84
2022/01/14 10:58:56;;;;;;;101.05;54.60;;;;;;;-0.72;86.40;101335.37;1362719;91;21319;-85
2022/01/14 11:01:25;;;;;;;105.25;53.15;;;;;;;-0.67;86.44;101336.06;1424569;91;21456;-86
2022/01/14 11:03:57;;;;;;;99.32;53.13;;;;;;;-0.68;86.46;101331.78;1399633;91;21404;-85
2022/01/14 11:06:35;;;;;;;103.35;55.80;;;;;;;-0.69;86.44;101320.53;1411944;91;22272;-82
2022/01/14 11:09:18;;;;;;;111.97;55.90;;;;;;;-0.69;86.54;101309.30;1413798;91;21472;-85
2022/01/14 11:11:48;;;;;;;104.72;53.02;;;;;;;-0.66;86.64;101297.48;1396500;91;21468;-84
2022/01/14 11:14:17;;;;;;;112.40;56.65;;;;;;;-0.65;86.67;101295.27;1399854;92;21679;-84
2022/01/14 11:16:45;;;;;;;101.07;51.55;;;;;;;-0.64;86.78;101307.81;1403764;92;21625;-85
2022/01/14 11:19:14;;;;;;;100.65;52.65;;;;;;;-0.65;86.80;101298.33;1411763;92;23354;-85
2022/01/14 11:24:33;;;;;;;95.87;50.95;;;;;;;-0.60;86.30;101285.56;1393210;92;21486;-85
2022/01/14 11:27:10;;;;;;;113.00;59.50;;;;;;;-0.61;86.27;101276.50;1326734;94;22524;-84
2022/01/14 11:29:45;;;;;;;108.55;54.73;;;;;;;-0.60;86.11;101274.31;1378875;92;21645;-85
2022/01/14 11:32:12;;;;;;;112.35;57.95;;;;;;;-0.59;86.55;101277.30;1399803;92;21567;-84
2022/01/14 11:34:43;;;;;;;120.93;62.87;;;;;;;-0.55;87.06;101280.17;1375795;93;21811;-84
2022/01/14 11:37:30;;;;;;;109.43;60.73;;;;;;;-0.47;86.62;101284.65;1405705;92;23071;-84
2022/01/14 11:40:03;;;;;;;109.55;58.78;;;;;;;-0.39;86.43;101293.48;1393177;90;21559;-84